Terminal Aerodrome Forecast
Issued by NWS

Home | Current Version | Previous Version | Text Only | Print | Product List | Glossary On
Versions: 1 2 3 4 5 6 7 8 9 10 11 12 13 14 15 16 17 18 19
000
FTUS41 KPHI 291743
TAFPNE
TAF
KPNE 291743Z 2918/3018 VRB04KT P6SM FEW120
     FM292000 15006KT P6SM FEW050
     FM300000 17005KT P6SM SCT250
     FM301000 18004KT 5SM BR SCT030
     FM301600 20009G16KT P6SM SCT050=

USA.gov is the U.S. government's official web portal to all federal, state and local government web resources and services.